createdAt,value
2022-10-17T00:02:09.686Z,3.40
2022-10-17T00:04:37.316Z,3.37
2022-10-17T00:07:06.316Z,3.13
2022-10-17T00:09:33.895Z,2.90
2022-10-17T00:12:02.654Z,3.43
2022-10-17T00:14:30.370Z,3.27
2022-10-17T00:16:58.031Z,3.47
2022-10-17T00:19:25.669Z,3.13
2022-10-17T00:21:53.678Z,3.23
2022-10-17T00:24:22.720Z,3.20
2022-10-17T00:26:50.452Z,2.90
2022-10-17T00:29:18.148Z,3.67
2022-10-17T00:31:45.787Z,4.80
2022-10-17T00:34:13.567Z,3.50
2022-10-17T00:36:41.210Z,3.50
2022-10-17T00:39:08.866Z,3.17
2022-10-17T00:41:37.895Z,3.17
2022-10-17T00:44:07.969Z,3.67
2022-10-17T00:46:37.291Z,3.17
2022-10-17T00:49:08.262Z,3.43
2022-10-17T00:51:42.753Z,2.77
2022-10-17T00:54:12.228Z,3.23
2022-10-17T00:56:41.383Z,3.30
2022-10-17T00:59:12.027Z,3.27
2022-10-17T01:01:41.195Z,3.23
2022-10-17T01:04:08.870Z,3.10
2022-10-17T01:06:36.508Z,3.13
2022-10-17T01:09:04.499Z,3.50
2022-10-17T01:11:40.949Z,3.10
2022-10-17T01:14:16.908Z,3.03
2022-10-17T01:16:48.939Z,3.53
2022-10-17T01:19:36.187Z,3.30
2022-10-17T01:22:10.781Z,2.90
2022-10-17T01:24:57.713Z,2.43
2022-10-17T01:27:49.365Z,3.10
2022-10-17T01:30:42.538Z,2.90
2022-10-17T01:33:18.629Z,3.13
2022-10-17T01:35:53.942Z,2.67
2022-10-17T01:38:26.025Z,3.00
2022-10-17T01:41:01.563Z,3.20
2022-10-17T01:43:36.046Z,2.80
2022-10-17T01:46:11.520Z,2.73
2022-10-17T01:48:43.822Z,2.67
2022-10-17T01:51:17.337Z,2.67
2022-10-17T01:53:50.636Z,2.53
2022-10-17T01:56:20.742Z,3.00
2022-10-17T01:58:51.868Z,3.20
2022-10-17T02:01:21.961Z,3.67
2022-10-17T02:03:52.427Z,2.93
2022-10-17T02:06:20.498Z,2.73
2022-10-17T02:08:50.088Z,3.00
2022-10-17T02:11:20.224Z,2.90
2022-10-17T02:14:07.475Z,2.40
2022-10-17T02:16:39.802Z,3.50
2022-10-17T02:19:35.147Z,3.40
2022-10-17T02:22:15.720Z,3.37
2022-10-17T02:24:50.694Z,2.67
2022-10-17T02:27:27.366Z,3.07
2022-10-17T02:30:02.088Z,3.03
2022-10-17T02:32:37.237Z,3.00
2022-10-17T02:35:11.173Z,3.00
2022-10-17T02:37:39.937Z,3.00
2022-10-17T02:40:09.788Z,3.00
2022-10-17T02:42:38.421Z,3.53
2022-10-17T02:45:07.678Z,3.23
2022-10-17T02:47:41.749Z,4.07
2022-10-17T02:50:11.679Z,3.13
2022-10-17T02:52:47.043Z,3.37
2022-10-17T02:55:19.341Z,3.10
2022-10-17T02:57:51.596Z,2.97
2022-10-17T03:00:21.752Z,2.70
2022-10-17T03:02:51.151Z,3.10
2022-10-17T03:05:23.173Z,3.23
2022-10-17T03:07:51.374Z,2.83
2022-10-17T03:10:19.590Z,2.73
2022-10-17T03:12:47.281Z,2.87
2022-10-17T03:15:15.717Z,2.80
2022-10-17T03:17:43.419Z,2.93
2022-10-17T03:20:11.791Z,2.73
2022-10-17T03:22:40.856Z,3.43
2022-10-17T03:25:09.258Z,2.60
2022-10-17T03:27:36.954Z,2.93
2022-10-17T03:30:04.819Z,3.30
2022-10-17T03:32:34.188Z,3.13
2022-10-17T03:35:02.053Z,3.30
2022-10-17T03:37:30.097Z,3.30
2022-10-17T03:39:59.418Z,3.20
2022-10-17T03:42:29.785Z,2.70
2022-10-17T03:44:57.996Z,2.80
2022-10-17T03:47:25.867Z,3.03
2022-10-17T03:49:54.523Z,3.20
2022-10-17T03:52:22.171Z,2.97
2022-10-17T03:54:50.987Z,3.40
2022-10-17T03:57:23.083Z,3.00
2022-10-17T03:59:51.574Z,3.40
2022-10-17T04:02:19.450Z,3.00
2022-10-17T04:04:47.157Z,3.00
2022-10-17T04:07:14.999Z,3.40
2022-10-17T04:09:42.686Z,3.50
2022-10-17T04:12:10.391Z,3.00
2022-10-17T04:14:39.803Z,2.67
2022-10-17T04:17:07.582Z,3.10
2022-10-17T04:19:35.340Z,2.87
2022-10-17T04:22:04.016Z,3.10
2022-10-17T04:24:31.679Z,3.10
2022-10-17T04:26:59.301Z,3.07
2022-10-17T04:29:27.072Z,3.00
2022-10-17T04:31:56.078Z,3.00
2022-10-17T04:34:23.758Z,3.20
2022-10-17T04:36:51.926Z,2.73
2022-10-17T04:39:19.599Z,3.50
2022-10-17T04:41:47.250Z,3.17
2022-10-17T04:44:14.986Z,2.63
2022-10-17T04:46:42.627Z,3.00
2022-10-17T04:49:11.638Z,3.00
2022-10-17T04:51:39.612Z,2.90
2022-10-17T04:54:07.577Z,3.20
2022-10-17T04:56:35.237Z,2.80
2022-10-17T04:59:02.838Z,2.93
2022-10-17T05:01:30.528Z,2.70
2022-10-17T05:03:58.226Z,3.40
2022-10-17T05:06:28.691Z,3.40
2022-10-17T05:08:57.456Z,3.30
2022-10-17T05:11:26.880Z,3.50
2022-10-17T05:13:56.245Z,3.17
2022-10-17T05:16:24.930Z,2.60
2022-10-17T05:18:54.164Z,2.97
2022-10-17T05:21:23.123Z,3.83
2022-10-17T05:23:52.461Z,4.03
2022-10-17T05:26:20.305Z,3.70
2022-10-17T05:28:48.419Z,4.00
2022-10-17T05:31:16.260Z,4.10
2022-10-17T05:33:44.032Z,3.50
2022-10-17T05:36:11.936Z,3.10
2022-10-17T05:38:39.722Z,4.37
2022-10-17T05:41:09.123Z,3.40
2022-10-17T05:43:36.888Z,3.37
2022-10-17T05:46:06.069Z,3.10
2022-10-17T05:48:34.057Z,3.53
2022-10-17T05:51:03.133Z,3.87
2022-10-17T05:53:32.198Z,3.40
2022-10-17T05:56:01.363Z,4.00
2022-10-17T06:01:18.565Z,3.70
2022-10-17T06:03:46.311Z,3.47
2022-10-17T06:06:15.517Z,3.17
2022-10-17T06:08:43.437Z,3.97
2022-10-17T06:11:11.647Z,3.43
2022-10-17T06:13:41.180Z,3.50
2022-10-17T06:16:09.383Z,3.60
2022-10-17T06:18:37.192Z,3.60
2022-10-17T06:21:06.444Z,3.47
2022-10-17T06:23:34.477Z,3.33
2022-10-17T06:26:03.637Z,3.37
2022-10-17T06:28:31.610Z,3.83
2022-10-17T06:31:01.041Z,3.90
2022-10-17T06:33:28.719Z,3.33
2022-10-17T06:35:57.456Z,3.30
2022-10-17T06:38:25.600Z,3.50
2022-10-17T06:40:54.020Z,4.43
2022-10-17T06:43:26.945Z,4.40
2022-10-17T06:48:29.798Z,4.60
2022-10-17T06:51:00.060Z,4.20
2022-10-17T06:53:28.821Z,4.90
2022-10-17T06:56:01.271Z,4.60
2022-10-17T06:58:29.193Z,4.47
2022-10-17T07:01:00.956Z,4.50
2022-10-17T07:03:30.958Z,3.30
2022-10-17T07:05:59.016Z,3.77
2022-10-17T07:08:27.639Z,3.80
2022-10-17T07:10:56.673Z,3.90
2022-10-17T07:13:24.922Z,3.70
2022-10-17T07:15:53.155Z,4.17
2022-10-17T07:18:20.990Z,3.80
2022-10-17T07:20:55.131Z,4.20
2022-10-17T07:23:23.207Z,3.77
2022-10-17T07:25:51.418Z,3.77
2022-10-17T07:28:19.742Z,3.30
2022-10-17T07:30:51.942Z,3.20
2022-10-17T07:33:22.447Z,4.00
2022-10-17T07:35:52.216Z,4.17
2022-10-17T07:38:21.495Z,3.40
2022-10-17T07:40:55.429Z,4.30
2022-10-17T07:43:23.541Z,4.23
2022-10-17T07:45:51.330Z,3.90
2022-10-17T07:48:19.896Z,4.10
2022-10-17T07:50:47.572Z,4.20
2022-10-17T07:53:15.455Z,4.17
2022-10-17T07:55:46.338Z,3.30
2022-10-17T07:58:14.861Z,3.90
2022-10-17T08:00:43.030Z,4.20
2022-10-17T08:03:12.098Z,3.67
2022-10-17T08:05:39.785Z,3.40
2022-10-17T08:08:07.482Z,3.40
2022-10-17T08:10:35.216Z,3.60
2022-10-17T08:13:04.370Z,3.63
2022-10-17T08:15:32.318Z,3.10
2022-10-17T08:18:00.474Z,3.50
2022-10-17T08:20:28.192Z,3.20
2022-10-17T08:22:56.615Z,3.17
2022-10-17T08:25:24.954Z,2.80
2022-10-17T08:27:52.763Z,3.20
2022-10-17T08:30:21.811Z,2.50
2022-10-17T08:32:49.628Z,3.17
2022-10-17T08:35:17.486Z,3.30
2022-10-17T08:37:45.186Z,2.90
2022-10-17T08:40:20.310Z,3.00
2022-10-17T08:43:14.171Z,3.47
2022-10-17T08:45:48.473Z,4.13
2022-10-17T08:48:19.329Z,3.60
2022-10-17T08:50:51.982Z,4.00
2022-10-17T08:53:24.001Z,3.40
2022-10-17T08:55:53.537Z,3.27
2022-10-17T08:58:24.051Z,4.07
2022-10-17T09:01:02.828Z,3.33
2022-10-17T09:03:44.180Z,3.63
2022-10-17T09:06:20.715Z,2.43
2022-10-17T09:09:00.637Z,3.10
2022-10-17T09:11:44.625Z,3.03
2022-10-17T09:14:35.035Z,3.00
2022-10-17T09:17:16.879Z,2.83
2022-10-17T09:19:50.196Z,2.73
2022-10-17T09:22:22.802Z,2.60
2022-10-17T09:24:55.614Z,2.20
2022-10-17T09:27:26.400Z,2.10
2022-10-17T09:30:01.672Z,1.97
2022-10-17T09:32:30.967Z,2.03
2022-10-17T09:34:58.867Z,1.70
2022-10-17T09:37:33.752Z,2.20
2022-10-17T09:40:01.444Z,2.63
2022-10-17T09:42:30.167Z,2.67
2022-10-17T09:45:06.738Z,2.30
2022-10-17T09:47:42.297Z,2.20
2022-10-17T09:50:19.408Z,2.43
2022-10-17T09:52:49.407Z,2.20
2022-10-17T09:55:22.052Z,3.10
2022-10-17T09:57:55.905Z,3.23
2022-10-17T10:00:29.571Z,2.20
2022-10-17T10:03:15.738Z,2.10
2022-10-17T10:05:58.672Z,2.40
2022-10-17T10:08:30.425Z,2.30
2022-10-17T10:11:07.935Z,2.47
2022-10-17T10:13:37.332Z,2.10
2022-10-17T10:16:21.344Z,2.40
2022-10-17T10:18:51.449Z,2.20
2022-10-17T10:21:21.180Z,2.67
2022-10-17T10:24:06.644Z,2.30
2022-10-17T10:26:39.819Z,2.57
2022-10-17T10:29:22.275Z,2.40
2022-10-17T10:31:51.830Z,2.67
2022-10-17T10:34:25.603Z,2.13
2022-10-17T10:36:58.658Z,2.50
2022-10-17T10:39:35.800Z,2.73
2022-10-17T10:42:06.555Z,2.30
2022-10-17T10:44:35.337Z,2.20
2022-10-17T10:47:15.532Z,2.20
2022-10-17T10:49:45.300Z,2.10
2022-10-17T10:52:19.385Z,2.40
2022-10-17T10:54:54.894Z,1.80
2022-10-17T10:57:26.816Z,1.90
2022-10-17T11:00:01.638Z,2.33
2022-10-17T11:02:35.755Z,2.10
2022-10-17T11:05:09.699Z,2.40
2022-10-17T11:07:43.180Z,1.90
2022-10-17T11:10:18.141Z,1.93
2022-10-17T11:12:51.409Z,2.40
2022-10-17T11:15:25.228Z,2.17
2022-10-17T11:17:59.012Z,1.90
2022-10-17T11:20:35.184Z,1.80
2022-10-17T11:23:19.680Z,1.60
2022-10-17T11:25:49.517Z,2.03
2022-10-17T11:28:19.243Z,2.10
2022-10-17T11:30:52.579Z,2.40
2022-10-17T11:33:27.898Z,2.00
2022-10-17T11:36:03.972Z,1.93
2022-10-17T11:38:43.708Z,2.43
2022-10-17T11:41:15.209Z,1.83
2022-10-17T11:43:50.644Z,1.97
2022-10-17T11:46:23.772Z,2.00
2022-10-17T11:49:02.029Z,2.07
2022-10-17T11:54:31.409Z,2.27
2022-10-17T11:57:16.459Z,1.80
2022-10-17T11:59:58.978Z,2.30
2022-10-17T12:02:39.270Z,2.10
2022-10-17T12:05:20.840Z,1.80
2022-10-17T12:07:56.385Z,2.33
2022-10-17T12:10:38.554Z,2.03
2022-10-17T12:13:42.726Z,2.20
2022-10-17T12:16:50.767Z,2.47
2022-10-17T12:19:28.605Z,2.20
2022-10-17T12:21:59.237Z,1.73
2022-10-17T12:24:40.271Z,2.33
2022-10-17T12:27:36.161Z,2.00
2022-10-17T12:30:07.715Z,1.90
2022-10-17T12:32:53.339Z,1.90
2022-10-17T12:35:26.263Z,1.83
2022-10-17T12:38:28.257Z,1.77
2022-10-17T12:41:01.878Z,2.50
2022-10-17T12:43:52.723Z,1.57
2022-10-17T12:46:43.883Z,2.00
2022-10-17T12:49:45.455Z,1.87
2022-10-17T12:52:19.498Z,2.00
2022-10-17T12:55:00.307Z,2.07
2022-10-17T12:57:45.224Z,1.73
2022-10-17T13:00:19.165Z,1.80
2022-10-17T13:02:47.415Z,2.40
2022-10-17T13:05:18.732Z,2.13
2022-10-17T13:07:49.492Z,2.23
2022-10-17T13:10:23.039Z,2.10
2022-10-17T13:12:55.802Z,2.00
2022-10-17T13:15:23.800Z,2.03
2022-10-17T13:17:58.330Z,2.13
2022-10-17T13:20:30.609Z,1.80
2022-10-17T13:23:00.304Z,2.20
2022-10-17T13:25:29.055Z,2.70
2022-10-17T13:28:13.875Z,2.83
2022-10-17T13:30:49.463Z,2.60
2022-10-17T13:33:30.380Z,3.10
2022-10-17T13:36:01.414Z,3.30
2022-10-17T13:38:32.369Z,2.93
2022-10-17T13:41:30.030Z,2.60
2022-10-17T13:43:51.409Z,3.20
2022-10-17T13:46:37.304Z,4.90
2022-10-17T13:49:13.763Z,2.77
2022-10-17T13:51:45.794Z,2.93
2022-10-17T13:54:36.175Z,3.17
2022-10-17T13:57:06.608Z,3.50
2022-10-17T13:59:40.270Z,2.93
2022-10-17T14:02:14.400Z,3.20
2022-10-17T14:05:11.637Z,2.80
2022-10-17T14:08:05.437Z,3.00
2022-10-17T14:10:27.527Z,2.47
2022-10-17T14:12:56.433Z,2.60
2022-10-17T14:15:28.508Z,2.80
2022-10-17T14:17:59.149Z,2.60
2022-10-17T14:23:36.184Z,3.10
2022-10-17T14:26:22.758Z,2.23
2022-10-17T14:29:03.604Z,2.60
2022-10-17T14:31:34.778Z,2.53
2022-10-17T14:34:05.298Z,2.93
2022-10-17T14:36:38.359Z,2.77
2022-10-17T14:39:14.145Z,2.90
2022-10-17T14:41:45.653Z,2.80
2022-10-17T14:44:24.329Z,2.80
2022-10-17T14:46:57.705Z,2.97
2022-10-17T14:49:32.502Z,3.20
2022-10-17T14:52:28.995Z,2.20
2022-10-17T14:54:58.425Z,2.63
2022-10-17T14:57:29.942Z,3.00
2022-10-17T14:59:57.932Z,2.93
2022-10-17T15:02:30.120Z,2.90
2022-10-17T15:04:58.389Z,3.10
2022-10-17T15:07:26.047Z,2.50
2022-10-17T15:09:54.592Z,2.87
2022-10-17T15:12:24.671Z,2.70
2022-10-17T15:14:52.959Z,2.97
2022-10-17T15:17:24.447Z,2.43
2022-10-17T15:19:53.792Z,2.67
2022-10-17T15:22:21.521Z,2.90
2022-10-17T15:24:49.198Z,3.60
2022-10-17T15:27:18.829Z,3.20
2022-10-17T15:29:47.190Z,4.30
2022-10-17T15:32:15.153Z,2.97
2022-10-17T15:34:43.354Z,3.57
2022-10-17T15:37:18.879Z,3.20
2022-10-17T15:39:52.947Z,2.87
2022-10-17T15:42:21.697Z,3.13
2022-10-17T15:44:50.253Z,3.40
2022-10-17T15:47:25.459Z,3.20
2022-10-17T15:49:53.405Z,2.93
2022-10-17T15:52:23.114Z,3.13
2022-10-17T15:54:51.526Z,3.67
2022-10-17T15:57:23.512Z,4.20
2022-10-17T15:59:52.261Z,4.27
2022-10-17T16:02:21.529Z,3.60
2022-10-17T16:04:50.503Z,3.30
2022-10-17T16:07:18.697Z,4.13
2022-10-17T16:09:47.884Z,3.27
2022-10-17T16:12:18.548Z,3.37
2022-10-17T16:14:46.424Z,3.77
2022-10-17T16:17:15.527Z,3.27
2022-10-17T16:19:44.191Z,3.20
2022-10-17T16:22:20.948Z,3.70
2022-10-17T16:24:49.976Z,3.37
2022-10-17T16:27:17.746Z,3.87
2022-10-17T16:29:45.526Z,3.77
2022-10-17T16:32:13.270Z,3.70
2022-10-17T16:34:40.906Z,4.27
2022-10-17T16:37:08.588Z,3.70
2022-10-17T16:39:36.355Z,4.10
2022-10-17T16:42:05.470Z,4.80
2022-10-17T16:44:33.193Z,4.40
2022-10-17T16:47:01.398Z,3.87
2022-10-17T16:49:29.131Z,4.37
2022-10-17T16:51:56.875Z,4.73
2022-10-17T16:54:24.608Z,4.23
2022-10-17T16:56:52.278Z,4.50
2022-10-17T16:59:21.315Z,4.17
2022-10-17T17:01:49.196Z,4.57
2022-10-17T17:04:17.068Z,4.50
2022-10-17T17:09:13.566Z,4.30
2022-10-17T17:11:41.290Z,4.70
2022-10-17T17:14:10.257Z,5.77
2022-10-17T17:16:39.315Z,4.30
2022-10-17T17:19:09.245Z,5.20
2022-10-17T17:21:37.634Z,3.93
2022-10-17T17:24:06.503Z,4.47
2022-10-17T17:26:36.840Z,4.97
2022-10-17T17:29:05.172Z,4.70
2022-10-17T17:31:34.933Z,5.00
2022-10-17T17:34:04.775Z,4.87
2022-10-17T17:36:34.124Z,5.50
2022-10-17T17:39:04.055Z,5.13
2022-10-17T17:41:31.802Z,4.93
2022-10-17T17:43:59.694Z,5.10
2022-10-17T17:46:27.453Z,4.67
2022-10-17T17:48:56.469Z,4.20
2022-10-17T17:51:29.427Z,5.17
2022-10-17T17:53:57.849Z,5.33
2022-10-17T17:56:28.056Z,6.80
2022-10-17T17:58:57.383Z,5.50
2022-10-17T18:01:27.802Z,6.00
2022-10-17T18:03:58.817Z,5.00
2022-10-17T18:06:28.869Z,5.87
2022-10-17T18:08:58.786Z,6.57
2022-10-17T18:11:28.180Z,6.20
2022-10-17T18:13:56.606Z,6.73
2022-10-17T18:16:24.637Z,6.30
2022-10-17T18:18:52.626Z,5.53
2022-10-17T18:21:20.605Z,6.00
2022-10-17T18:23:51.659Z,5.90
2022-10-17T18:26:19.644Z,5.50
2022-10-17T18:28:48.285Z,5.70
2022-10-17T18:31:21.979Z,5.60
2022-10-17T18:33:52.473Z,6.53
2022-10-17T18:36:20.189Z,6.30
2022-10-17T18:38:50.690Z,5.90
2022-10-17T18:41:20.637Z,6.10
2022-10-17T18:43:49.768Z,5.60
2022-10-17T18:46:19.275Z,6.03
2022-10-17T18:48:47.898Z,5.97
2022-10-17T18:51:17.229Z,6.60
2022-10-17T18:53:46.627Z,5.20
2022-10-17T18:56:16.151Z,6.17
2022-10-17T18:58:44.006Z,5.47
2022-10-17T19:01:15.367Z,7.07
2022-10-17T19:03:44.045Z,5.70
2022-10-17T19:06:13.547Z,6.20
2022-10-17T19:08:42.933Z,6.20
2022-10-17T19:11:12.344Z,6.10
2022-10-17T19:13:42.071Z,5.90
2022-10-17T19:16:16.273Z,6.20
2022-10-17T19:18:44.389Z,5.73
2022-10-17T19:21:12.805Z,6.27
2022-10-17T19:23:40.580Z,6.33
2022-10-17T19:26:10.111Z,6.40
2022-10-17T19:28:39.573Z,5.83
2022-10-17T19:31:12.921Z,5.47
2022-10-17T19:33:41.862Z,6.20
2022-10-17T19:36:14.282Z,5.97
2022-10-17T19:38:42.350Z,5.63
2022-10-17T19:41:12.286Z,6.43
2022-10-17T19:43:41.613Z,6.17
2022-10-17T19:46:14.039Z,5.70
2022-10-17T19:48:42.172Z,5.87
2022-10-17T19:51:13.379Z,5.80
2022-10-17T19:53:42.745Z,6.17
2022-10-17T19:56:11.718Z,6.00
2022-10-17T19:58:45.347Z,6.03
2022-10-17T20:01:17.049Z,5.60
2022-10-17T20:03:44.752Z,6.47
2022-10-17T20:06:12.907Z,6.80
2022-10-17T20:08:41.872Z,6.23
2022-10-17T20:11:13.313Z,6.20
2022-10-17T20:13:41.877Z,5.70
2022-10-17T20:16:12.726Z,5.43
2022-10-17T20:18:41.853Z,6.00
2022-10-17T20:21:11.709Z,6.40
2022-10-17T20:23:40.010Z,7.17
2022-10-17T20:26:37.622Z,5.40
2022-10-17T20:29:01.640Z,6.30
2022-10-17T20:31:30.048Z,6.10
2022-10-17T20:34:00.412Z,5.63
2022-10-17T20:36:28.690Z,5.97
2022-10-17T20:38:57.319Z,6.03
2022-10-17T20:41:25.914Z,5.30
2022-10-17T20:43:55.059Z,6.37
2022-10-17T20:46:36.348Z,5.77
2022-10-17T20:49:08.098Z,7.13
2022-10-17T20:51:36.724Z,6.20
2022-10-17T20:54:04.965Z,6.20
2022-10-17T20:56:34.427Z,6.00
2022-10-17T20:59:04.614Z,5.70
2022-10-17T21:01:33.863Z,5.30
2022-10-17T21:04:21.368Z,5.53
2022-10-17T21:06:52.210Z,5.53
2022-10-17T21:09:20.803Z,6.10
2022-10-17T21:11:51.275Z,6.00
2022-10-17T21:14:19.699Z,6.30
2022-10-17T21:16:47.970Z,5.70
2022-10-17T21:19:17.271Z,6.10
2022-10-17T21:21:47.185Z,6.23
2022-10-17T21:24:19.338Z,6.47
2022-10-17T21:26:49.971Z,6.70
2022-10-17T21:29:18.063Z,6.00
2022-10-17T21:31:46.119Z,6.30
2022-10-17T21:34:15.531Z,5.60
2022-10-17T21:36:43.596Z,6.00
2022-10-17T21:39:12.835Z,5.60
2022-10-17T21:41:42.664Z,5.43
2022-10-17T21:44:14.038Z,5.47
2022-10-17T21:46:42.650Z,6.60
2022-10-17T21:49:11.955Z,5.63
2022-10-17T21:51:40.669Z,6.13
2022-10-17T21:54:09.011Z,6.17
2022-10-17T21:56:37.399Z,7.43
2022-10-17T21:59:07.151Z,5.97
2022-10-17T22:01:37.222Z,6.17
2022-10-17T22:04:07.038Z,5.43
2022-10-17T22:06:40.094Z,5.90
2022-10-17T22:09:12.470Z,4.73
2022-10-17T22:11:40.882Z,5.00
2022-10-17T22:14:14.376Z,6.07
2022-10-17T22:16:44.277Z,5.63
2022-10-17T22:19:13.372Z,5.43
2022-10-17T22:21:41.425Z,5.43
2022-10-17T22:24:12.383Z,5.57
2022-10-17T22:26:40.724Z,5.13
2022-10-17T22:29:11.097Z,5.77
2022-10-17T22:31:39.598Z,5.63
2022-10-17T22:34:08.369Z,5.37
2022-10-17T22:36:37.087Z,5.47
2022-10-17T22:39:05.507Z,5.73
2022-10-17T22:41:33.564Z,5.27
2022-10-17T22:44:01.560Z,5.07
2022-10-17T22:46:30.863Z,6.10
2022-10-17T22:48:59.083Z,5.30
2022-10-17T22:51:27.055Z,5.07
2022-10-17T22:53:54.967Z,6.10
2022-10-17T22:56:23.652Z,5.33
2022-10-17T22:58:51.674Z,5.60
2022-10-17T23:01:21.272Z,5.33
2022-10-17T23:03:51.015Z,5.53
2022-10-17T23:06:19.217Z,6.23
2022-10-17T23:08:47.389Z,5.40
2022-10-17T23:11:15.227Z,4.93
2022-10-17T23:13:43.262Z,5.80
2022-10-17T23:16:11.393Z,5.10
2022-10-17T23:18:39.753Z,5.87
2022-10-17T23:21:09.316Z,5.60
2022-10-17T23:23:37.892Z,5.90
2022-10-17T23:26:07.617Z,5.30
2022-10-17T23:28:36.026Z,5.50
2022-10-17T23:31:15.732Z,5.90
2022-10-17T23:33:45.172Z,5.77
2022-10-17T23:36:15.695Z,5.47
2022-10-17T23:38:45.227Z,6.03
2022-10-17T23:41:14.020Z,5.17
2022-10-17T23:43:42.384Z,6.00
2022-10-17T23:46:10.921Z,5.47
2022-10-17T23:48:38.925Z,5.70
2022-10-17T23:51:07.217Z,5.83
2022-10-17T23:53:36.496Z,5.40
2022-10-17T23:56:04.638Z,5.57
2022-10-17T23:58:32.766Z,4.50
